Time;durP1;ratioP1;P1;durP2;ratioP2;P2;SDS_P1;SDS_P2;PMS_P1;PMS_P2;Temp;Humidity;BMP_temperature;BMP_pressure;BME280_temperature;BME280_humidity;BME280_pressure;Samples;Min_cycle;Max_cycle;Signal;HPM_P1;HPM_P2
2021/08/21 00:02:47;;;;;;;;;;;14.00;99.90;;;;;;8396079;28;19915;-70
2021/08/21 00:06:48;;;;;;;;;;;13.80;99.90;;;;;;8394650;28;19991;-71
2021/08/21 00:10:48;;;;;;;;;;;13.70;99.90;;;;;;8395390;28;20020;-70
2021/08/21 00:14:49;;;;;;;;;;;13.80;99.90;;;;;;8395660;28;19915;-70
2021/08/21 00:18:49;;;;;;;;;;;13.70;99.90;;;;;;8394058;28;19909;-71
2021/08/21 00:22:50;;;;;;;;;;;13.90;99.90;;;;;;8418078;28;20420;-70
2021/08/21 00:26:50;;;;;;;;;;;13.70;99.90;;;;;;8428463;28;19914;-71
2021/08/21 00:30:51;;;;;;;;;;;13.30;99.90;;;;;;8427358;28;19916;-70
2021/08/21 00:34:51;;;;;;;;;;;13.10;99.90;;;;;;8427128;28;19920;-70
2021/08/21 00:38:52;;;;;;;;;;;13.00;99.90;;;;;;8428052;28;19919;-70
2021/08/21 00:42:52;;;;;;;;;;;13.00;99.90;;;;;;8428001;28;20334;-71
2021/08/21 00:47:05;;;;;;;;;;;13.10;99.90;;;;;;8426838;28;19917;-71
2021/08/21 00:51:05;;;;;;;;;;;13.00;99.90;;;;;;8427018;28;20290;-70
2021/08/21 00:55:06;;;;;;;;;;;13.00;99.90;;;;;;8427655;28;19908;-70
2021/08/21 00:59:08;;;;;;;;;;;12.90;99.90;;;;;;8427544;28;19916;-70
2021/08/21 01:03:09;;;;;;;;;;;12.90;99.90;;;;;;8415003;28;19962;-70
2021/08/21 01:07:10;;;;;;;;;;;12.90;99.90;;;;;;8393795;28;19908;-70
2021/08/21 01:11:10;;;;;;;;;;;12.80;99.90;;;;;;8392351;28;19916;-72
2021/08/21 01:15:11;;;;;;;;;;;13.00;99.90;;;;;;8393824;28;19968;-70
2021/08/21 01:19:12;;;;;;;;;;;12.90;99.90;;;;;;8393451;28;20006;-70
2021/08/21 01:23:13;;;;;;;;;;;12.80;99.90;;;;;;8419503;28;19908;-70
2021/08/21 01:27:20;;;;;;;;;;;13.00;99.90;;;;;;8426643;28;19908;-70
2021/08/21 01:31:21;;;;;;;;;;;13.00;99.90;;;;;;8424893;28;20006;-70
2021/08/21 01:35:21;;;;;;;;;;;12.80;99.90;;;;;;8425099;28;19920;-69
2021/08/21 01:39:22;;;;;;;;;;;12.60;99.90;;;;;;8426239;28;19919;-69
2021/08/21 01:43:22;;;;;;;;;;;12.90;99.90;;;;;;8425698;28;19982;-71
2021/08/21 01:47:23;;;;;;;;;;;12.80;99.90;;;;;;8424775;28;19912;-72
2021/08/21 01:51:23;;;;;;;;;;;12.60;99.90;;;;;;8423214;28;19912;-71
2021/08/21 01:55:24;;;;;;;;;;;12.30;99.90;;;;;;8425465;28;19980;-69
2021/08/21 01:59:33;;;;;;;;;;;12.70;99.90;;;;;;8425943;28;19912;-69
2021/08/21 02:03:34;;;;;;;;;;;12.60;99.90;;;;;;8425741;28;20282;-69
2021/08/21 02:07:35;;;;;;;;;;;12.60;99.90;;;;;;8422659;28;19948;-69
2021/08/21 02:11:35;;;;;;;;;;;12.40;99.90;;;;;;8425350;28;19912;-72
2021/08/21 02:15:35;;;;;;;;;;;12.40;99.90;;;;;;8424846;28;19908;-70
2021/08/21 02:19:36;;;;;;;;;;;12.20;99.90;;;;;;8423351;28;20400;-69
2021/08/21 02:23:37;;;;;;;;;;;12.30;99.90;;;;;;8424854;28;20338;-69
2021/08/21 02:27:39;;;;;;;;;;;12.50;99.90;;;;;;8425177;28;20428;-69
2021/08/21 02:31:40;;;;;;;;;;;12.30;99.90;;;;;;8425046;28;19951;-70
2021/08/21 02:35:40;;;;;;;;;;;12.10;99.90;;;;;;8423725;28;19924;-69
2021/08/21 02:39:42;;;;;;;;;;;12.10;99.90;;;;;;8423764;28;19919;-71
2021/08/21 02:43:42;;;;;;;;;;;11.90;99.90;;;;;;8423907;28;19956;-67
2021/08/21 02:47:42;;;;;;;;;;;11.70;99.90;;;;;;8424037;28;19951;-67
2021/08/21 02:51:43;;;;;;;;;;;11.70;99.90;;;;;;8423026;28;20315;-67
2021/08/21 02:55:43;;;;;;;;;;;11.60;99.90;;;;;;8423284;28;19908;-67
2021/08/21 02:59:44;;;;;;;;;;;11.60;99.90;;;;;;8424452;28;19912;-67
2021/08/21 03:03:44;;;;;;;;;;;11.70;99.90;;;;;;8428813;28;19930;-67
2021/08/21 03:07:45;;;;;;;;;;;11.60;99.90;;;;;;8430904;28;19908;-67
2021/08/21 03:11:45;;;;;;;;;;;11.70;99.90;;;;;;8429595;28;19919;-67
2021/08/21 03:15:45;;;;;;;;;;;11.80;99.90;;;;;;8430512;28;19908;-67
2021/08/21 03:19:46;;;;;;;;;;;12.00;99.90;;;;;;8430115;28;19966;-68
2021/08/21 03:23:46;;;;;;;;;;;11.80;99.90;;;;;;8429825;28;19998;-68
2021/08/21 03:27:47;;;;;;;;;;;11.60;99.90;;;;;;8428421;28;19908;-68
2021/08/21 03:31:47;;;;;;;;;;;11.60;99.90;;;;;;8430222;28;20389;-67
2021/08/21 03:35:49;;;;;;;;;;;11.50;99.90;;;;;;8428507;28;19916;-67
2021/08/21 03:39:49;;;;;;;;;;;11.50;99.90;;;;;;8428106;28;19927;-67
2021/08/21 03:43:50;;;;;;;;;;;11.40;99.90;;;;;;8427871;28;19909;-67
2021/08/21 03:47:50;;;;;;;;;;;11.50;99.90;;;;;;8429309;28;19942;-67
2021/08/21 03:51:51;;;;;;;;;;;11.60;99.90;;;;;;8428847;28;20366;-68
2021/08/21 03:55:51;;;;;;;;;;;11.50;99.90;;;;;;8427879;28;19908;-67
2021/08/21 03:59:51;;;;;;;;;;;11.40;99.90;;;;;;8429116;28;20409;-67
2021/08/21 04:03:52;;;;;;;;;;;11.40;99.90;;;;;;8427620;28;19979;-67
2021/08/21 04:07:52;;;;;;;;;;;11.20;99.90;;;;;;8428808;28;20335;-67
2021/08/21 04:11:53;;;;;;;;;;;11.20;99.90;;;;;;8428681;28;19912;-67
2021/08/21 04:15:54;;;;;;;;;;;11.20;99.90;;;;;;8427145;28;20496;-67
2021/08/21 04:19:54;;;;;;;;;;;11.30;99.90;;;;;;8428454;28;20274;-68
2021/08/21 04:23:54;;;;;;;;;;;11.20;99.90;;;;;;8427926;28;20003;-67
2021/08/21 04:27:55;;;;;;;;;;;11.20;99.90;;;;;;8428019;28;19908;-68
2021/08/21 04:31:55;;;;;;;;;;;11.40;99.90;;;;;;8428018;28;19912;-67
2021/08/21 04:35:56;;;;;;;;;;;11.40;99.90;;;;;;8464522;22;19924;-66
2021/08/21 04:39:56;;;;;;;;;;;11.20;99.90;;;;;;8459791;28;20354;-66
2021/08/21 04:43:57;;;;;;;;;;;11.20;99.90;;;;;;8442583;28;19951;-66
2021/08/21 04:47:57;;;;;;;;;;;11.30;99.90;;;;;;8441610;28;19907;-66
2021/08/21 04:51:59;;;;;;;;;;;11.50;99.90;;;;;;8461109;28;19916;-66
2021/08/21 04:55:59;;;;;;;;;;;11.50;99.90;;;;;;8461051;28;20012;-66
2021/08/21 05:00:02;;;;;;;;;;;11.90;99.90;;;;;;8461086;28;19907;-66
2021/08/21 05:04:02;;;;;;;;;;;12.00;99.90;;;;;;8460892;28;19908;-66
2021/08/21 05:08:03;;;;;;;;;;;12.20;99.90;;;;;;8460833;28;20354;-66
2021/08/21 05:12:04;;;;;;;;;;;12.40;99.90;;;;;;8461019;28;19919;-66
2021/08/21 05:16:04;;;;;;;;;;;12.70;99.90;;;;;;8460993;28;19998;-66
2021/08/21 05:20:16;;;;;;;;;;;13.00;99.90;;;;;;8459284;28;19908;-66
2021/08/21 05:24:17;;;;;;;;;;;13.30;99.90;;;;;;8459629;28;19908;-66
2021/08/21 05:28:18;;;;;;;;;;;13.70;99.90;;;;;;8460062;28;19908;-66
2021/08/21 05:32:18;;;;;;;;;;;14.00;99.90;;;;;;8441651;28;19943;-66
2021/08/21 05:36:19;;;;;;;;;;;14.30;99.90;;;;;;8459733;28;19927;-66
2021/08/21 05:40:20;;;;;;;;;;;14.60;99.90;;;;;;8458464;28;19908;-66
2021/08/21 05:44:20;;;;;;;;;;;14.90;99.90;;;;;;8458985;28;20000;-66
2021/08/21 05:48:21;;;;;;;;;;;15.20;99.90;;;;;;8459078;28;20058;-66
2021/08/21 05:52:21;;;;;;;;;;;15.40;99.90;;;;;;8458332;28;20000;-66
2021/08/21 05:56:22;;;;;;;;;;;15.70;99.90;;;;;;8459300;28;19908;-66
2021/08/21 06:00:24;;;;;;;;;;;16.00;99.90;;;;;;8459093;28;19908;-66
2021/08/21 06:04:25;;;;;;;;;;;16.20;99.90;;;;;;8459251;28;19912;-66
2021/08/21 06:08:25;;;;;;;;;;;16.30;99.90;;;;;;8458857;28;20293;-66
2021/08/21 06:12:26;;;;;;;;;;;16.20;99.90;;;;;;8459479;28;20015;-66
2021/08/21 06:16:26;;;;;;;;;;;16.20;99.90;;;;;;8458887;28;19961;-66
2021/08/21 06:20:27;;;;;;;;;;;16.20;99.90;;;;;;8458726;28;19912;-66
2021/08/21 06:24:27;;;;;;;;;;;16.30;99.90;;;;;;8457759;28;20002;-66
2021/08/21 06:28:27;;;;;;;;;;;16.50;99.90;;;;;;8458339;28;19907;-66
2021/08/21 06:32:28;;;;;;;;;;;16.70;99.90;;;;;;8440360;28;20304;-66
2021/08/21 06:36:28;;;;;;;;;;;16.70;99.90;;;;;;8460206;28;20389;-66
2021/08/21 06:40:29;;;;;;;;;;;16.50;99.90;;;;;;8465655;28;19919;-66
2021/08/21 06:44:29;;;;;;;;;;;16.50;99.90;;;;;;8465166;28;19908;-66
2021/08/21 06:48:32;;;;;;;;;;;16.70;99.90;;;;;;8464952;28;19908;-66
2021/08/21 06:52:32;;;;;;;;;;;16.80;99.90;;;;;;8464552;28;19912;-66
2021/08/21 06:56:33;;;;;;;;;;;16.90;99.90;;;;;;8441908;28;19912;-66
2021/08/21 07:00:34;;;;;;;;;;;17.20;99.90;;;;;;8430811;28;19939;-66
2021/08/21 07:04:34;;;;;;;;;;;17.80;99.90;;;;;;8413092;28;19919;-66
2021/08/21 07:08:34;;;;;;;;;;;18.10;99.90;;;;;;8430685;28;19908;-66
2021/08/21 07:12:35;;;;;;;;;;;18.60;99.90;;;;;;8412549;28;19912;-66
2021/08/21 07:16:35;;;;;;;;;;;18.80;99.90;;;;;;8430570;28;19908;-66
2021/08/21 07:20:36;;;;;;;;;;;19.10;99.90;;;;;;8423033;28;19919;-66
2021/08/21 07:24:36;;;;;;;;;;;19.50;99.90;;;;;;8463805;28;19908;-66
2021/08/21 07:28:37;;;;;;;;;;;19.90;99.90;;;;;;8458359;28;19911;-66
2021/08/21 07:32:37;;;;;;;;;;;20.00;99.90;;;;;;8462287;28;19930;-66
2021/08/21 07:36:38;;;;;;;;;;;20.20;99.90;;;;;;8461977;28;19998;-66
2021/08/21 07:40:38;;;;;;;;;;;20.20;99.90;;;;;;8440373;28;20124;-66
2021/08/21 07:44:39;;;;;;;;;;;20.30;99.90;;;;;;8461915;28;19968;-66
2021/08/21 07:48:39;;;;;;;;;;;20.40;99.90;;;;;;8460809;28;20424;-67
2021/08/21 07:52:42;;;;;;;;;;;20.40;99.90;;;;;;8460032;28;19961;-67
2021/08/21 07:56:43;;;;;;;;;;;20.50;99.90;;;;;;8461182;28;19962;-66
2021/08/21 08:00:43;;;;;;;;;;;20.60;99.90;;;;;;8460062;28;19916;-67
2021/08/21 08:04:44;;;;;;;;;;;20.70;99.90;;;;;;8460496;28;19919;-67
2021/08/21 08:08:44;;;;;;;;;;;20.90;99.90;;;;;;8459885;28;19920;-67
2021/08/21 08:12:45;;;;;;;;;;;21.20;99.90;;;;;;8451521;28;19943;-67
2021/08/21 08:16:45;;;;;;;;;;;21.60;99.90;;;;;;8438346;28;19919;-66
2021/08/21 08:20:46;;;;;;;;;;;21.80;99.90;;;;;;8427472;28;19912;-66
2021/08/21 08:24:46;;;;;;;;;;;21.80;99.90;;;;;;8433919;28;19912;-66
2021/08/21 08:28:47;;;;;;;;;;;21.90;99.90;;;;;;8439723;28;19916;-67
2021/08/21 08:32:47;;;;;;;;;;;21.80;99.90;;;;;;8435006;28;20439;-67
2021/08/21 08:36:48;;;;;;;;;;;21.70;99.90;;;;;;8423338;28;19916;-67
2021/08/21 08:40:48;;;;;;;;;;;21.50;99.90;;;;;;8447959;28;19981;-67
2021/08/21 08:44:49;;;;;;;;;;;21.60;99.90;;;;;;8448881;28;20373;-67
2021/08/21 08:48:49;;;;;;;;;;;21.60;99.90;;;;;;8460485;28;19957;-67
2021/08/21 08:52:51;;;;;;;;;;;21.60;99.90;;;;;;8438719;28;19919;-67
2021/08/21 08:56:52;;;;;;;;;;;21.90;99.90;;;;;;8456034;28;20329;-67
2021/08/21 09:00:53;;;;;;;;;;;22.10;99.90;;;;;;8458949;28;19943;-67
2021/08/21 09:05:00;;;;;;;;;;;22.30;99.90;;;;;;8441654;28;19935;-67
2021/08/21 09:09:14;;;;;;;;;;;22.50;99.90;;;;;;8461177;28;20381;-67
2021/08/21 09:13:15;;;;;;;;;;;22.80;99.90;;;;;;8457952;28;19916;-67
2021/08/21 09:17:18;;;;;;;;;;;23.40;99.90;;;;;;8461116;28;19908;-67
2021/08/21 09:21:18;;;;;;;;;;;23.70;99.90;;;;;;8442364;28;19960;-66
2021/08/21 09:25:28;;;;;;;;;;;23.90;99.90;;;;;;8460132;28;19996;-67
2021/08/21 09:29:29;;;;;;;;;;;23.90;99.90;;;;;;8460295;28;19912;-66
2021/08/21 09:33:29;;;;;;;;;;;23.90;99.90;;;;;;8447588;28;20344;-67
2021/08/21 09:37:43;;;;;;;;;;;23.90;99.90;;;;;;8425750;28;19955;-67
2021/08/21 09:42:00;;;;;;;;;;;24.30;99.90;;;;;;8457684;28;20032;-67
2021/08/21 09:46:10;;;;;;;;;;;24.60;99.90;;;;;;8458574;28;19966;-67
2021/08/21 09:50:14;;;;;;;;;;;25.00;99.90;;;;;;8440590;28;20238;-67
2021/08/21 09:54:19;;;;;;;;;;;25.20;99.90;;;;;;8441293;28;19918;-67
2021/08/21 09:58:20;;;;;;;;;;;25.20;99.90;;;;;;8458940;28;19923;-67
2021/08/21 10:02:21;;;;;;;;;;;25.50;99.90;;;;;;8441121;28;19908;-67
2021/08/21 10:06:23;;;;;;;;;;;25.80;99.90;;;;;;8434200;28;19919;-67
2021/08/21 10:10:25;;;;;;;;;;;26.10;99.90;;;;;;8437766;28;19908;-67
2021/08/21 10:14:25;;;;;;;;;;;26.10;99.90;;;;;;8459265;28;19943;-67
2021/08/21 10:18:25;;;;;;;;;;;26.30;99.90;;;;;;8459300;28;19937;-67
2021/08/21 10:22:29;;;;;;;;;;;26.80;99.90;;;;;;8458937;28;19935;-67
2021/08/21 10:26:33;;;;;;;;;;;26.80;99.90;;;;;;8458683;28;19955;-67
2021/08/21 10:30:43;;;;;;;;;;;26.80;99.90;;;;;;8458485;28;20453;-67
2021/08/21 10:34:50;;;;;;;;;;;26.70;99.90;;;;;;8440396;28;19919;-68
2021/08/21 10:39:11;;;;;;;;;;;27.00;99.90;;;;;;8455581;28;19922;-68
2021/08/21 10:43:11;;;;;;;;;;;26.80;99.90;;;;;;8452258;28;20031;-68
2021/08/21 10:47:30;;;;;;;;;;;27.30;99.90;;;;;;8458293;28;19968;-68
2021/08/21 10:51:34;;;;;;;;;;;27.70;99.90;;;;;;8435965;28;19960;-68
2021/08/21 10:55:38;;;;;;;;;;;27.90;99.90;;;;;;8458791;28;19914;-68
2021/08/21 10:59:39;;;;;;;;;;;27.60;99.90;;;;;;8458384;28;20170;-68
2021/08/21 11:03:41;;;;;;;;;;;27.60;99.90;;;;;;8455390;28;19923;-68
2021/08/21 11:07:42;;;;;;;;;;;27.60;99.90;;;;;;8458464;28;19912;-68
2021/08/21 11:11:46;;;;;;;;;;;28.10;99.90;;;;;;8457521;28;19918;-68
2021/08/21 11:15:59;;;;;;;;;;;30.10;99.90;;;;;;8458499;28;20382;-68
2021/08/21 11:20:19;;;;;;;;;;;32.80;97.40;;;;;;8449965;28;19916;-68
2021/08/21 11:24:27;;;;;;;;;;;34.70;88.70;;;;;;8446521;28;20388;-68
2021/08/21 11:28:29;;;;;;;;;;;36.50;79.30;;;;;;8419825;28;19989;-69
2021/08/21 11:32:30;;;;;;;;;;;37.50;66.10;;;;;;8439149;28;19920;-69
2021/08/21 11:36:32;;;;;;;;;;;38.00;58.80;;;;;;8438789;28;21203;-69
2021/08/21 11:40:38;;;;;;;;;;;37.80;58.80;;;;;;8440591;28;19912;-69
2021/08/21 11:44:38;;;;;;;;;;;37.10;58.60;;;;;;8437500;28;19908;-69
2021/08/21 11:48:41;;;;;;;;;;;37.10;56.00;;;;;;8463450;28;19915;-69
2021/08/21 11:52:45;;;;;;;;;;;37.10;55.50;;;;;;8441471;28;19923;-69
2021/08/21 11:56:58;;;;;;;;;;;38.10;53.60;;;;;;8463502;28;20311;-69
2021/08/21 12:01:11;;;;;;;;;;;39.10;51.50;;;;;;8463107;28;19914;-69
2021/08/21 12:05:11;;;;;;;;;;;39.40;47.70;;;;;;8431474;28;20400;-69
2021/08/21 12:09:13;;;;;;;;;;;38.50;47.90;;;;;;8442751;28;19919;-69
2021/08/21 12:13:13;;;;;;;;;;;37.70;49.00;;;;;;8449962;28;19923;-69
2021/08/21 12:17:14;;;;;;;;;;;36.80;51.40;;;;;;8443052;28;19973;-69
2021/08/21 12:21:19;;;;;;;;;;;37.40;49.20;;;;;;8429202;28;19916;-69
2021/08/21 12:25:19;;;;;;;;;;;38.30;51.50;;;;;;8434356;28;19999;-69
2021/08/21 12:29:28;;;;;;;;;;;38.70;47.30;;;;;;8452326;28;19915;-69
2021/08/21 12:33:29;;;;;;;;;;;40.20;45.60;;;;;;8404878;28;20495;-68
2021/08/21 12:37:30;;;;;;;;;;;40.00;45.20;;;;;;8423604;28;19928;-68
2021/08/21 12:41:31;;;;;;;;;;;39.20;46.20;;;;;;8425114;28;20527;-68
2021/08/21 12:45:41;;;;;;;;;;;38.90;46.60;;;;;;8438182;28;19974;-68
2021/08/21 12:49:43;;;;;;;;;;;39.70;48.00;;;;;;8440620;28;19964;-68
2021/08/21 12:53:43;;;;;;;;;;;41.60;43.30;;;;;;8442556;28;19911;-68
2021/08/21 12:57:44;;;;;;;;;;;43.50;40.70;;;;;;8441616;28;20393;-69
2021/08/21 13:01:45;;;;;;;;;;;42.00;41.40;;;;;;8445681;28;19912;-68
2021/08/21 13:05:56;;;;;;;;;;;41.60;42.50;;;;;;8438326;28;20003;-68
2021/08/21 13:09:56;;;;;;;;;;;41.10;44.10;;;;;;8430066;28;19916;-68
2021/08/21 13:13:57;;;;;;;;;;;42.60;42.30;;;;;;8425862;28;19957;-68
2021/08/21 13:17:57;;;;;;;;;;;40.30;43.70;;;;;;8440814;28;19911;-68
2021/08/21 13:21:58;;;;;;;;;;;39.40;45.00;;;;;;8459642;28;20216;-68
2021/08/21 13:25:58;;;;;;;;;;;40.10;46.40;;;;;;8460553;28;19968;-68
2021/08/21 13:29:58;;;;;;;;;;;41.20;43.40;;;;;;8460501;28;19907;-68
2021/08/21 13:34:05;;;;;;;;;;;42.80;40.50;;;;;;8454199;28;19920;-68
2021/08/21 13:38:05;;;;;;;;;;;43.20;39.90;;;;;;8442635;28;19915;-68
2021/08/21 13:42:06;;;;;;;;;;;43.20;39.60;;;;;;8437642;28;19959;-68
2021/08/21 13:46:06;;;;;;;;;;;43.10;40.20;;;;;;8439008;28;20057;-68
2021/08/21 13:50:07;;;;;;;;;;;43.40;37.70;;;;;;8427425;28;19937;-68
2021/08/21 13:54:08;;;;;;;;;;;42.60;38.50;;;;;;8440582;28;19935;-68
2021/08/21 13:58:10;;;;;;;;;;;44.10;38.80;;;;;;8459091;28;19998;-68
2021/08/21 14:02:10;;;;;;;;;;;45.10;37.10;;;;;;8456833;28;19918;-68
2021/08/21 14:06:11;;;;;;;;;;;43.30;38.40;;;;;;8459062;28;19912;-68
2021/08/21 14:10:12;;;;;;;;;;;42.60;38.90;;;;;;8452903;28;19908;-68
2021/08/21 14:14:12;;;;;;;;;;;41.60;40.50;;;;;;8426124;28;20010;-68
2021/08/21 14:18:13;;;;;;;;;;;41.50;39.10;;;;;;8443236;28;19908;-68
2021/08/21 14:22:14;;;;;;;;;;;40.60;41.80;;;;;;8458765;28;19908;-68
2021/08/21 14:26:14;;;;;;;;;;;39.80;42.00;;;;;;8457687;28;19908;-68
2021/08/21 14:30:15;;;;;;;;;;;39.10;41.60;;;;;;8458854;28;20389;-68
2021/08/21 14:34:15;;;;;;;;;;;40.30;39.90;;;;;;8458729;28;19912;-68
2021/08/21 14:38:16;;;;;;;;;;;40.90;38.70;;;;;;8450322;28;19973;-68
2021/08/21 14:42:16;;;;;;;;;;;41.40;38.70;;;;;;8451035;28;20030;-68
2021/08/21 14:46:17;;;;;;;;;;;42.40;37.60;;;;;;8450114;28;19908;-68
2021/08/21 14:50:17;;;;;;;;;;;43.10;36.70;;;;;;8435851;28;20030;-69
2021/08/21 14:54:18;;;;;;;;;;;43.20;36.70;;;;;;8458814;28;19918;-68
2021/08/21 14:58:18;;;;;;;;;;;41.80;38.10;;;;;;8457465;28;19912;-68
2021/08/21 15:02:19;;;;;;;;;;;39.70;40.50;;;;;;8464107;28;19916;-68
2021/08/21 15:06:19;;;;;;;;;;;39.00;41.40;;;;;;8446178;28;19923;-68
2021/08/21 15:10:20;;;;;;;;;;;38.10;42.50;;;;;;8452589;28;19923;-68
2021/08/21 15:14:20;;;;;;;;;;;36.90;43.90;;;;;;8435761;28;19969;-68
2021/08/21 15:18:21;;;;;;;;;;;35.70;46.90;;;;;;8441766;28;19987;-68
2021/08/21 15:22:22;;;;;;;;;;;36.50;43.90;;;;;;8451260;28;19907;-68
2021/08/21 15:26:23;;;;;;;;;;;37.10;44.20;;;;;;8464321;28;19923;-68
2021/08/21 15:30:23;;;;;;;;;;;37.70;43.90;;;;;;8462144;28;20010;-68
2021/08/21 15:34:24;;;;;;;;;;;38.60;42.60;;;;;;8463352;28;20000;-68
2021/08/21 15:38:24;;;;;;;;;;;39.00;42.60;;;;;;8434660;28;19919;-67
2021/08/21 15:42:28;;;;;;;;;;;38.60;42.40;;;;;;8437289;28;19930;-67
2021/08/21 15:46:29;;;;;;;;;;;38.00;42.10;;;;;;8463413;28;19962;-68
2021/08/21 15:50:29;;;;;;;;;;;38.70;42.00;;;;;;8444631;28;19908;-68
2021/08/21 15:54:29;;;;;;;;;;;39.60;41.50;;;;;;8461997;28;19937;-68
2021/08/21 15:58:30;;;;;;;;;;;39.90;40.90;;;;;;8429111;28;20518;-68
2021/08/21 16:02:30;;;;;;;;;;;38.20;42.20;;;;;;8445625;28;20002;-67
2021/08/21 16:06:31;;;;;;;;;;;36.60;46.40;;;;;;8462924;28;19916;-67
2021/08/21 16:10:34;;;;;;;;;;;37.30;44.90;;;;;;8461624;28;19919;-67
2021/08/21 16:14:36;;;;;;;;;;;36.90;43.00;;;;;;8441041;28;19911;-67
2021/08/21 16:18:37;;;;;;;;;;;36.90;44.60;;;;;;8444757;28;20006;-67
2021/08/21 16:22:37;;;;;;;;;;;36.00;46.70;;;;;;8458881;28;20340;-67
2021/08/21 16:26:38;;;;;;;;;;;36.70;46.60;;;;;;8417070;28;19965;-67
2021/08/21 16:30:40;;;;;;;;;;;37.40;44.30;;;;;;8438236;28;19908;-67
2021/08/21 16:34:40;;;;;;;;;;;37.30;45.90;;;;;;8454412;28;19923;-68
2021/08/21 16:38:41;;;;;;;;;;;37.90;45.00;;;;;;8422363;28;20357;-67
2021/08/21 16:42:41;;;;;;;;;;;37.50;45.20;;;;;;8419294;28;20179;-67
2021/08/21 16:46:43;;;;;;;;;;;36.30;46.10;;;;;;8448152;28;19915;-67
2021/08/21 16:50:43;;;;;;;;;;;35.00;48.80;;;;;;8444808;28;19981;-67
2021/08/21 16:54:44;;;;;;;;;;;34.10;50.60;;;;;;8441290;28;19946;-67
2021/08/21 16:58:44;;;;;;;;;;;34.10;50.30;;;;;;8435966;28;19912;-67
2021/08/21 17:02:46;;;;;;;;;;;33.70;52.20;;;;;;8432123;28;20506;-67
2021/08/21 17:06:46;;;;;;;;;;;33.30;52.20;;;;;;8458002;28;19982;-67
2021/08/21 17:10:47;;;;;;;;;;;32.80;53.60;;;;;;8427711;28;19919;-67
2021/08/21 17:14:48;;;;;;;;;;;31.80;55.20;;;;;;8443987;28;19908;-67
2021/08/21 17:18:49;;;;;;;;;;;30.70;59.50;;;;;;8442029;28;19908;-66
2021/08/21 17:22:49;;;;;;;;;;;29.80;61.60;;;;;;8425640;28;20293;-66
2021/08/21 17:26:50;;;;;;;;;;;29.10;64.40;;;;;;8448362;28;19908;-67
2021/08/21 17:30:51;;;;;;;;;;;28.60;66.20;;;;;;8426833;28;20286;-66
2021/08/21 17:34:51;;;;;;;;;;;28.10;68.30;;;;;;8434493;28;19916;-67
2021/08/21 17:38:52;;;;;;;;;;;27.70;68.90;;;;;;8451806;28;20438;-66
2021/08/21 17:42:52;;;;;;;;;;;27.20;72.40;;;;;;8459032;28;19912;-66
2021/08/21 17:46:52;;;;;;;;;;;26.80;73.30;;;;;;8427488;28;19923;-67
2021/08/21 17:50:55;;;;;;;;;;;26.50;78.30;;;;;;8438050;28;19916;-67
2021/08/21 17:54:55;;;;;;;;;;;26.20;78.60;;;;;;8439450;28;19919;-67
2021/08/21 17:58:57;;;;;;;;;;;25.90;81.50;;;;;;8442494;28;19934;-67
2021/08/21 18:02:57;;;;;;;;;;;25.50;85.30;;;;;;8448820;28;20273;-67
2021/08/21 18:06:58;;;;;;;;;;;25.00;88.00;;;;;;8433530;28;19912;-67
2021/08/21 18:10:58;;;;;;;;;;;24.60;91.90;;;;;;8437040;28;19927;-66
2021/08/21 18:15:00;;;;;;;;;;;24.40;93.90;;;;;;8444994;28;19911;-66
2021/08/21 18:19:00;;;;;;;;;;;24.20;96.40;;;;;;8453911;28;19922;-67
2021/08/21 18:23:01;;;;;;;;;;;23.80;99.90;;;;;;8433223;28;19911;-66
2021/08/21 18:27:01;;;;;;;;;;;23.50;99.90;;;;;;8455471;28;19915;-67
2021/08/21 18:31:02;;;;;;;;;;;23.20;99.90;;;;;;8431733;28;19923;-67
2021/08/21 18:35:03;;;;;;;;;;;22.90;99.90;;;;;;8410385;28;19916;-66
2021/08/21 18:39:05;;;;;;;;;;;22.60;99.90;;;;;;8430402;28;19908;-66
2021/08/21 18:43:05;;;;;;;;;;;22.20;99.90;;;;;;8448685;28;20365;-66
2021/08/21 18:47:06;;;;;;;;;;;21.90;99.90;;;;;;8465699;28;19912;-66
2021/08/21 18:51:07;;;;;;;;;;;21.60;99.90;;;;;;8465150;28;19959;-67
2021/08/21 18:55:08;;;;;;;;;;;21.40;99.90;;;;;;8465316;28;19998;-67
2021/08/21 18:59:09;;;;;;;;;;;21.40;99.90;;;;;;8465256;28;20339;-66
2021/08/21 19:03:09;;;;;;;;;;;21.40;99.90;;;;;;8465527;28;19908;-67
2021/08/21 19:07:10;;;;;;;;;;;21.40;99.90;;;;;;8465510;28;20339;-66
2021/08/21 19:11:10;;;;;;;;;;;21.50;99.90;;;;;;8465111;28;20568;-66
2021/08/21 19:15:11;;;;;;;;;;;21.20;99.90;;;;;;8462457;28;19911;-67
2021/08/21 19:19:11;;;;;;;;;;;21.00;99.90;;;;;;8463468;28;19911;-66
2021/08/21 19:23:12;;;;;;;;;;;20.70;99.90;;;;;;8445467;28;19915;-67
2021/08/21 19:27:12;;;;;;;;;;;20.50;99.90;;;;;;8464045;28;19908;-66
2021/08/21 19:31:13;;;;;;;;;;;20.40;99.90;;;;;;8444311;28;19916;-67
2021/08/21 19:35:13;;;;;;;;;;;20.20;99.90;;;;;;8462996;28;19968;-67
2021/08/21 19:39:14;;;;;;;;;;;20.10;99.90;;;;;;8462357;28;20006;-66
2021/08/21 19:43:14;;;;;;;;;;;20.20;99.90;;;;;;8461645;28;19915;-67
2021/08/21 19:47:15;;;;;;;;;;;20.00;99.90;;;;;;8461117;28;20362;-66
2021/08/21 19:51:15;;;;;;;;;;;19.80;99.90;;;;;;8443182;28;20342;-66
2021/08/21 19:55:15;;;;;;;;;;;19.90;99.90;;;;;;8462078;28;19960;-66
2021/08/21 19:59:16;;;;;;;;;;;20.00;99.90;;;;;;8463156;28;19908;-66
2021/08/21 20:03:16;;;;;;;;;;;19.90;99.90;;;;;;8463087;28;19912;-66
2021/08/21 20:07:17;;;;;;;;;;;19.60;99.90;;;;;;8444179;28;19912;-66
2021/08/21 20:11:17;;;;;;;;;;;19.50;99.90;;;;;;8444112;28;19912;-66
2021/08/21 20:15:18;;;;;;;;;;;19.40;99.90;;;;;;8463050;28;20376;-65
2021/08/21 20:19:19;;;;;;;;;;;19.10;99.90;;;;;;8461200;28;19912;-65
2021/08/21 20:23:20;;;;;;;;;;;19.00;99.90;;;;;;8443951;28;20320;-66
2021/08/21 20:27:20;;;;;;;;;;;19.10;99.90;;;;;;8461865;28;20314;-66
2021/08/21 20:31:21;;;;;;;;;;;19.00;99.90;;;;;;8462105;28;19918;-66
2021/08/21 20:35:21;;;;;;;;;;;18.80;99.90;;;;;;8461329;28;19926;-66
2021/08/21 20:39:22;;;;;;;;;;;19.00;99.90;;;;;;8461931;28;19919;-66
2021/08/21 20:43:22;;;;;;;;;;;18.80;99.90;;;;;;8461352;28;20361;-66
2021/08/21 20:47:25;;;;;;;;;;;18.70;99.90;;;;;;8461036;28;19958;-66
2021/08/21 20:51:26;;;;;;;;;;;18.90;99.90;;;;;;8459904;28;19956;-66
2021/08/21 20:55:26;;;;;;;;;;;18.70;99.90;;;;;;8460657;28;19947;-66
2021/08/21 20:59:27;;;;;;;;;;;18.70;99.90;;;;;;8460889;28;20039;-66
2021/08/21 21:03:27;;;;;;;;;;;18.70;99.90;;;;;;8442980;28;20374;-66
2021/08/21 21:07:28;;;;;;;;;;;18.70;99.90;;;;;;8457623;28;20246;-66
2021/08/21 21:11:29;;;;;;;;;;;18.60;99.90;;;;;;8459701;28;20436;-66
2021/08/21 21:15:29;;;;;;;;;;;18.30;99.90;;;;;;8458917;28;19911;-66
2021/08/21 21:19:29;;;;;;;;;;;18.00;99.90;;;;;;8458302;28;19914;-66
2021/08/21 21:23:30;;;;;;;;;;;18.00;99.90;;;;;;8425967;28;19915;-66
2021/08/21 21:27:31;;;;;;;;;;;17.80;99.90;;;;;;8441719;28;19916;-66
2021/08/21 21:31:31;;;;;;;;;;;18.10;99.90;;;;;;8442858;28;19916;-66
2021/08/21 21:35:32;;;;;;;;;;;18.30;99.90;;;;;;8423264;28;19920;-65
2021/08/21 21:39:33;;;;;;;;;;;18.20;99.90;;;;;;8459595;28;19933;-66
2021/08/21 21:43:33;;;;;;;;;;;17.80;99.90;;;;;;8459689;28;19908;-66
2021/08/21 21:47:34;;;;;;;;;;;18.10;99.90;;;;;;8460169;28;20381;-66
2021/08/21 21:51:35;;;;;;;;;;;18.10;99.90;;;;;;8459287;28;19953;-66
2021/08/21 21:55:36;;;;;;;;;;;17.80;99.90;;;;;;8440102;28;20059;-66
2021/08/21 21:59:36;;;;;;;;;;;17.60;99.90;;;;;;8441534;28;19908;-66
2021/08/21 22:03:36;;;;;;;;;;;17.70;99.90;;;;;;8441716;28;19907;-66
2021/08/21 22:07:37;;;;;;;;;;;17.70;99.90;;;;;;8458890;28;19915;-65
2021/08/21 22:11:37;;;;;;;;;;;17.50;99.90;;;;;;8459618;28;20158;-66
2021/08/21 22:15:38;;;;;;;;;;;17.50;99.90;;;;;;8459491;28;19908;-66
2021/08/21 22:19:38;;;;;;;;;;;17.50;99.90;;;;;;8459454;28;19908;-65
2021/08/21 22:23:39;;;;;;;;;;;17.50;99.90;;;;;;8458952;28;19954;-66
2021/08/21 22:27:40;;;;;;;;;;;17.30;99.90;;;;;;8458024;28;19914;-66
2021/08/21 22:31:41;;;;;;;;;;;17.20;99.90;;;;;;8459129;28;19915;-66
2021/08/21 22:35:45;;;;;;;;;;;17.50;99.90;;;;;;8459004;28;20022;-66
2021/08/21 22:39:46;;;;;;;;;;;17.40;99.90;;;;;;8458486;28;20002;-66
2021/08/21 22:43:46;;;;;;;;;;;17.50;99.90;;;;;;8458860;28;20280;-66
2021/08/21 22:47:47;;;;;;;;;;;17.40;99.90;;;;;;8458622;28;19915;-66
2021/08/21 22:51:48;;;;;;;;;;;17.10;99.90;;;;;;8458496;28;20182;-67
2021/08/21 22:55:48;;;;;;;;;;;17.00;99.90;;;;;;8458321;28;19908;-66
2021/08/21 22:59:48;;;;;;;;;;;17.20;99.90;;;;;;8439286;28;19915;-66
2021/08/21 23:03:49;;;;;;;;;;;17.00;99.90;;;;;;8458382;28;19911;-66
2021/08/21 23:07:49;;;;;;;;;;;16.90;99.90;;;;;;8448956;28;19924;-66
2021/08/21 23:11:50;;;;;;;;;;;16.90;99.90;;;;;;8427926;28;19942;-66
2021/08/21 23:15:50;;;;;;;;;;;16.70;99.90;;;;;;8406695;28;19919;-66
2021/08/21 23:19:51;;;;;;;;;;;16.80;99.90;;;;;;8428484;28;19923;-66
2021/08/21 23:23:51;;;;;;;;;;;16.70;99.90;;;;;;8445847;28;19971;-66